createdAt,value
2023-03-25T21:02:24.716Z,113.60
2023-03-25T21:04:51.364Z,104.20
2023-03-25T21:07:18.168Z,167.60
2023-03-25T21:09:46.647Z,118.80
2023-03-25T21:12:13.995Z,94.10
2023-03-25T21:14:41.014Z,80.00
2023-03-25T21:17:07.521Z,86.60
2023-03-25T21:19:34.299Z,91.50
2023-03-25T21:22:00.746Z,82.20
2023-03-25T21:24:27.394Z,80.10
2023-03-25T21:26:53.930Z,70.80
2023-03-25T21:29:20.480Z,70.40
2023-03-25T21:31:47.139Z,63.20
2023-03-25T21:34:13.658Z,67.50
2023-03-25T21:36:40.075Z,74.50
2023-03-25T21:39:06.871Z,78.10
2023-03-25T21:41:33.559Z,73.00
2023-03-25T21:44:00.036Z,69.40
2023-03-25T21:46:27.907Z,91.90
2023-03-25T21:48:56.025Z,81.70
2023-03-25T21:51:22.473Z,77.10
2023-03-25T21:53:49.673Z,80.50
2023-03-25T21:56:18.608Z,71.60
2023-03-25T21:58:45.526Z,62.70
2023-03-25T22:01:15.927Z,61.70
2023-03-25T22:03:46.095Z,61.30
2023-03-25T22:06:18.399Z,56.30
2023-03-25T22:08:45.752Z,59.60
2023-03-25T22:11:15.182Z,56.20
2023-03-25T22:13:43.069Z,55.30
2023-03-25T22:16:11.612Z,52.30
2023-03-25T22:18:39.018Z,52.00
2023-03-25T22:21:31.038Z,56.70
2023-03-25T22:24:00.225Z,54.10
2023-03-25T22:26:29.849Z,53.20
2023-03-25T22:28:59.654Z,53.40
2023-03-25T22:31:28.353Z,52.30
2023-03-25T22:33:54.806Z,43.80
2023-03-25T22:36:21.740Z,42.60
2023-03-25T22:38:50.079Z,41.20
2023-03-25T22:41:17.539Z,43.20
2023-03-25T22:43:48.426Z,48.20
2023-03-25T22:46:15.261Z,41.10
2023-03-25T22:48:42.623Z,41.10
2023-03-25T22:51:12.193Z,43.20
2023-03-25T22:53:39.737Z,39.40
2023-03-25T22:56:07.816Z,42.10
2023-03-25T22:58:35.301Z,40.30
2023-03-25T23:01:05.717Z,46.90
2023-03-25T23:03:32.895Z,41.70
2023-03-25T23:06:06.352Z,44.60
2023-03-25T23:08:39.302Z,40.00
2023-03-25T23:11:20.666Z,45.50
2023-03-25T23:13:50.886Z,37.10
2023-03-25T23:16:21.656Z,39.30
2023-03-25T23:18:48.564Z,37.20
2023-03-25T23:21:20.674Z,38.10
2023-03-25T23:23:52.872Z,34.10
2023-03-25T23:26:36.068Z,36.40
2023-03-25T23:29:04.981Z,47.40
2023-03-25T23:31:34.862Z,45.30
2023-03-25T23:34:04.654Z,52.00
2023-03-25T23:36:33.371Z,57.20
2023-03-25T23:39:00.415Z,48.80
2023-03-25T23:41:27.286Z,48.70
2023-03-25T23:43:54.879Z,45.40
2023-03-25T23:46:23.787Z,48.30
2023-03-25T23:48:50.895Z,39.40
2023-03-25T23:51:19.180Z,36.80
2023-03-25T23:53:47.704Z,39.10
2023-03-25T23:56:17.178Z,32.10
2023-03-25T23:58:44.995Z,32.00
